Red Oak, IA

7:42 AM CST on February 07, 2016 (GMT -0600)
NFS-1351 210th St | | Change Station
CLOSE
Current Station
Personal Weather Station
Location: Red Oak, IA
Elevation: 1083 ft
Nearby Weather Stations

Elev 1083 ft 41.00 °N, 95.32 °W | Updated 7 minutes ago

Clear
Clear
36.9 °F
Feels Like 33 °F
N
5.0
Wind Variable Wind from WNW

Today
High -- | Low -- °F
--% Chance of Precip.
Yesterday
High -- | Low -- °F
Precip. -- in
Pressure 29.96 in
Visibility 10.0 miles
Clouds Clear
Windchill 33 °F
Dew Point 29 °F
Humidity 74%
Rainfall 0.00 in
Snow Depth Not available.
7:25 AM 5:44 PM
Waning Crescent, 1% visible
METAR KRDK 071335Z AUTO 23007KT 10SM CLR 02/M03 A2996 RMK AO2
Pressure 29.96 in
Visibility 10.0 miles
Clouds Clear
Windchill 33 °F
Dew Point 29 °F
Humidity 74%
Rainfall 0.00 in
Snow Depth Not available.
7:25 AM 5:44 PM
Waning Crescent, 1% visible
METAR KRDK 071335Z AUTO 23007KT 10SM CLR 02/M03 A2996 RMK AO2

10-Day Weather Forecast

Almanac

Astronomy

Feb. 07, 2016 Rise Set
Actual Time
Civil Twilight
Nautical Twilight
Astronomical Twilight
Moon
Length of Visible Light
Length of Day
Tomorrow will be .
, % of the Moon is Illuminated

Today's Extremes

State Highs State Lows

Community

WunderPhotos

Upload Photos

1,891,190 photos uploaded!

WunderBlog® & News

Nearby

Air Quality

  Air Quality AQ Index Pollutant
Not available.

Snow Depth

Station Depth Elevation

Earthquake Activity

City Distance Mag. Time & Date
Minimum magnitude displayed is 2.5.

Coastal Water Temperatures

Place Temperature

Stations

Nearby Weather Stations

Station Location Temp. Windchill Dew Point Humidity Wind Precip. Elev Updated Type
                   

Watches & Warnings

There are currently no watches in effect.